Time;durP1;ratioP1;P1;durP2;ratioP2;P2;SDS_P1;SDS_P2;PMS_P1;PMS_P2;Temp;Humidity;BMP_temperature;BMP_pressure;BME280_temperature;BME280_humidity;BME280_pressure;Samples;Min_cycle;Max_cycle;Signal;HPM_P1;HPM_P2
2023/01/04 00:00:14;;;;;;;2.60;1.40;;;;;;;6.95;72.72;96231.00;5112195;28;20515;-61
2023/01/04 00:02:43;;;;;;;4.27;2.60;;;;;;;6.94;74.29;96232.03;5112308;28;20420;-61
2023/01/04 00:05:13;;;;;;;1.90;1.17;;;;;;;6.56;74.77;96165.66;5112213;28;20424;-61
2023/01/04 00:07:41;;;;;;;0.83;0.83;;;;;;;6.88;73.90;96233.72;5112062;28;20420;-61
2023/01/04 00:10:09;;;;;;;0.70;0.70;;;;;;;6.88;74.26;96233.72;5112397;28;20420;-61
2023/01/04 00:12:38;;;;;;;13.37;1.17;;;;;;;6.78;74.13;96228.19;5112017;28;20463;-61
2023/01/04 00:15:07;;;;;;;1.00;1.00;;;;;;;6.84;73.38;96239.66;5112095;28;20424;-61
2023/01/04 00:17:36;;;;;;;13.40;0.73;;;;;;;6.93;74.39;96235.72;5111997;28;20455;-61
2023/01/04 00:20:05;;;;;;;0.60;0.60;;;;;;;6.12;73.64;96146.56;5111253;28;20510;-61
2023/01/04 00:22:35;;;;;;;4.23;0.67;;;;;;;6.63;75.11;96243.56;5111878;28;20424;-62
2023/01/04 00:25:03;;;;;;;0.70;0.70;;;;;;;6.56;73.53;96244.69;5111970;28;20928;-61
2023/01/04 00:27:32;;;;;;;0.80;0.80;;;;;;;6.11;73.77;96176.56;5112122;28;20496;-61
2023/01/04 00:30:00;;;;;;;1.10;1.07;;;;;;;6.49;74.15;96249.22;5111896;28;20427;-61
2023/01/04 00:32:28;;;;;;;1.13;1.03;;;;;;;6.48;74.51;96237.09;5111944;28;20474;-62
2023/01/04 00:34:56;;;;;;;0.77;0.77;;;;;;;6.60;75.07;96243.22;5112034;28;20451;-61
2023/01/04 00:37:25;;;;;;;4.10;0.73;;;;;;;6.55;77.42;96248.34;5112007;28;20428;-61
2023/01/04 00:39:54;;;;;;;0.80;0.80;;;;;;;6.64;76.61;96247.03;5111896;28;20434;-61
2023/01/04 00:42:23;;;;;;;3.23;1.63;;;;;;;6.59;76.67;96231.88;5111959;28;20431;-61
2023/01/04 00:44:51;;;;;;;0.63;0.63;;;;;;;6.67;77.76;96236.03;5110924;28;20514;-61
2023/01/04 00:47:19;;;;;;;0.90;0.73;;;;;;;6.56;75.90;96239.41;5114624;28;20448;-61
2023/01/04 00:49:48;;;;;;;0.60;0.60;;;;;;;6.56;77.95;96231.50;5115259;28;20491;-61
2023/01/04 00:52:16;;;;;;;0.93;0.47;;;;;;;6.60;76.63;96240.59;5115967;28;20490;-61
2023/01/04 00:54:45;;;;;;;3.50;1.53;;;;;;;6.15;78.29;96176.91;5115697;28;20489;-61
2023/01/04 00:57:14;;;;;;;0.30;0.20;;;;;;;6.63;75.86;96246.22;5115682;28;20420;-61
2023/01/04 00:59:43;;;;;;;1.20;1.17;;;;;;;6.61;75.34;96250.09;5115603;28;20431;-61
2023/01/04 01:02:11;;;;;;;0.70;0.70;;;;;;;6.54;73.96;96247.56;5115792;28;20426;-61
2023/01/04 01:04:40;;;;;;;0.77;0.77;;;;;;;5.83;77.02;96228.84;5115992;28;20423;-62
2023/01/04 01:07:08;;;;;;;6.33;1.10;;;;;;;5.76;78.71;96257.03;5115490;28;20428;-61
2023/01/04 01:09:36;;;;;;;2.53;2.43;;;;;;;5.42;80.56;96253.06;5115478;28;20499;-61
2023/01/04 01:12:05;;;;;;;0.40;0.30;;;;;;;5.29;78.42;96174.31;5114988;28;20914;-61
2023/01/04 01:14:35;;;;;;;0.60;0.60;;;;;;;5.99;78.13;96253.81;5115402;28;20427;-61
2023/01/04 01:17:03;;;;;;;0.60;0.60;;;;;;;6.14;77.34;96254.28;5115106;28;20441;-60
2023/01/04 01:19:32;;;;;;;0.50;0.43;;;;;;;6.10;75.94;96246.00;5114741;28;20427;-60
2023/01/04 01:22:00;;;;;;;0.93;0.90;;;;;;;6.05;75.33;96245.03;5115348;28;20424;-61
2023/01/04 01:24:28;;;;;;;0.97;0.63;;;;;;;6.25;74.43;96243.00;5115661;28;20416;-61
2023/01/04 01:26:57;;;;;;;1.50;1.40;;;;;;;6.00;74.96;96239.63;5115199;28;20434;-61
2023/01/04 01:29:25;;;;;;;0.77;0.77;;;;;;;6.15;76.10;96242.72;5115497;28;20507;-61
2023/01/04 01:31:55;;;;;;;1.27;1.27;;;;;;;6.10;76.08;96245.19;5115013;28;20460;-61
2023/01/04 01:34:23;;;;;;;0.40;0.40;;;;;;;6.11;75.54;96236.28;5115180;28;20848;-61
2023/01/04 01:36:52;;;;;;;0.40;0.40;;;;;;;6.16;74.65;96239.88;5114905;28;20419;-61
2023/01/04 01:39:20;;;;;;;0.40;0.27;;;;;;;5.89;73.95;96217.50;5114885;28;20426;-61
2023/01/04 01:41:49;;;;;;;0.53;0.53;;;;;;;6.04;75.74;96241.63;5114132;28;20424;-61
2023/01/04 01:45:09;;;;;;;0.40;0.30;;;;;;;6.16;74.66;96239.88;5114814;28;20416;-61
2023/01/04 01:47:43;;;;;;;0.50;0.50;;;;;;;6.00;75.16;96237.00;5051677;28;20443;-61
2023/01/04 01:50:22;;;;;;;0.80;0.67;;;;;;;6.15;75.76;96233.00;5108577;28;20471;-60
2023/01/04 01:52:53;;;;;;;0.40;0.30;;;;;;;6.10;74.56;96234.66;5119057;28;20469;-60
2023/01/04 01:55:22;;;;;;;0.70;0.70;;;;;;;6.14;76.32;96223.50;5114990;28;20451;-59
2023/01/04 01:57:53;;;;;;;0.30;0.20;;;;;;;5.95;77.28;96192.94;5114722;28;20428;-59
2023/01/04 02:00:22;;;;;;;1.57;1.10;;;;;;;6.15;77.40;96232.19;5114469;28;20507;-60
2023/01/04 02:03:02;;;;;;;0.90;0.90;;;;;;;6.16;80.61;96213.56;5114374;28;20882;-60
2023/01/04 02:05:32;;;;;;;4.43;1.40;;;;;;;6.11;75.37;96226.56;5114408;28;20485;-61
2023/01/04 02:08:02;;;;;;;3.17;2.83;;;;;;;6.07;75.21;96225.38;5114380;28;20523;-61
2023/01/04 02:10:32;;;;;;;2.20;1.80;;;;;;;5.96;74.20;96222.69;5114357;28;20424;-61
2023/01/04 02:13:06;;;;;;;1.10;0.93;;;;;;;5.68;74.52;96215.22;5114369;28;20538;-61
2023/01/04 02:15:44;;;;;;;0.40;0.40;;;;;;;5.47;77.94;96203.28;5113846;28;20485;-61
2023/01/04 02:18:21;;;;;;;1.20;0.83;;;;;;;5.55;76.23;96226.69;5113448;28;20416;-61
2023/01/04 02:20:59;;;;;;;0.40;0.30;;;;;;;5.63;76.46;96228.22;5113694;28;20416;-61
2023/01/04 02:24:16;;;;;;;0.63;0.63;;;;;;;4.22;76.13;96019.59;5113579;28;20416;-61
2023/01/04 02:27:17;;;;;;;0.60;0.50;;;;;;;5.31;76.61;96229.31;5114163;28;20522;-61
2023/01/04 02:30:18;;;;;;;1.17;0.93;;;;;;;4.98;78.83;96237.41;5113804;28;20429;-61
2023/01/04 02:33:05;;;;;;;0.70;0.70;;;;;;;5.45;77.55;96220.28;5112921;28;20592;-59
2023/01/04 02:35:43;;;;;;;1.13;1.00;;;;;;;5.32;75.89;96207.25;5113800;28;20481;-60
2023/01/04 02:38:20;;;;;;;3.70;1.83;;;;;;;5.28;75.92;96233.16;5113647;28;20428;-60
2023/01/04 02:40:57;;;;;;;0.93;0.93;;;;;;;5.21;75.59;96216.66;5113715;28;20416;-59
2023/01/04 02:46:24;;;;;;;2.40;1.30;;;;;;;4.87;76.07;96191.59;5113694;28;20522;-59
2023/01/04 02:51:42;;;;;;;0.43;0.43;;;;;;;5.45;76.36;96222.91;5073178;28;20429;-60
2023/01/04 02:54:13;;;;;;;8.27;0.73;;;;;;;5.48;76.26;96217.22;5072679;28;20492;-60
2023/01/04 02:57:04;;;;;;;1.70;1.60;;;;;;;5.47;75.72;96220.88;5073214;28;20461;-60
2023/01/04 02:59:56;;;;;;;0.73;0.40;;;;;;;5.44;74.88;96214.22;5072714;28;20464;-60
2023/01/04 03:08:38;;;;;;;7.20;2.37;;;;;;;5.63;77.66;96201.94;5071029;28;20528;-60
2023/01/04 03:12:30;;;;;;;4.30;0.80;;;;;;;5.41;75.84;96184.94;5072450;28;20554;-59
2023/01/04 03:14:03;;;;;;;0.43;0.43;;;;;;;5.56;75.79;96207.25;5072501;28;20508;-61
2023/01/04 03:16:52;;;;;;;0.50;0.50;;;;;;;5.62;74.55;96210.81;5072464;28;20438;-61
2023/01/04 03:35:21;;;;;;;0.40;0.40;;;;;;;5.45;74.38;96222.91;5072040;28;20445;-61
2023/01/04 03:36:27;;;;;;;1.80;1.67;;;;;;;5.22;77.19;96222.69;5071440;28;20425;-61
2023/01/04 03:50:37;;;;;;;0.97;0.97;;;;;;;5.27;77.77;96243.88;5093577;28;20563;-59
2023/01/04 03:53:07;;;;;;;2.00;1.33;;;;;;;5.36;76.63;96235.53;5111821;28;20556;-59
2023/01/04 03:55:39;;;;;;;1.10;1.00;;;;;;;5.35;76.06;96238.38;5111964;28;20611;-60
2023/01/04 03:58:07;;;;;;;0.40;0.40;;;;;;;5.57;76.67;96235.16;5111751;28;20451;-60
2023/01/04 04:00:36;;;;;;;0.30;0.30;;;;;;;5.43;74.92;96238.09;5111958;28;20420;-60
2023/01/04 04:03:07;;;;;;;0.40;0.40;;;;;;;5.56;76.80;96238.00;5111604;28;20490;-60
2023/01/04 04:08:27;;;;;;;0.70;0.40;;;;;;;5.37;75.26;96233.69;5116660;28;20947;-60
2023/01/04 04:11:28;;;;;;;5.00;1.00;;;;;;;5.35;75.12;96230.47;5114775;28;20428;-60
2023/01/04 04:13:48;;;;;;;0.40;0.30;;;;;;;5.22;76.17;96210.34;5110488;28;20510;-60
2023/01/04 04:16:17;;;;;;;0.90;0.90;;;;;;;5.25;75.34;96232.78;5111878;28;20483;-60
2023/01/04 04:18:46;;;;;;;0.50;0.50;;;;;;;4.86;77.32;96244.34;5111798;28;20428;-60
2023/01/04 04:21:15;;;;;;;0.70;0.60;;;;;;;5.21;77.87;96236.88;5110294;28;20940;-60
2023/01/04 04:23:43;;;;;;;2.33;0.70;;;;;;;5.03;76.08;96224.44;5111995;28;20438;-60
2023/01/04 04:26:13;;;;;;;2.37;2.27;;;;;;;2.96;79.43;96074.53;5111139;28;20524;-61
2023/01/04 04:28:42;;;;;;;0.57;0.57;;;;;;;3.71;86.10;96263.50;5111610;28;20420;-61
2023/01/04 04:31:10;;;;;;;1.43;1.40;;;;;;;3.70;87.18;96263.69;5111468;28;20515;-60
2023/01/04 04:33:39;;;;;;;0.60;0.50;;;;;;;3.79;87.25;96249.38;5111441;28;20421;-60
2023/01/04 04:36:08;;;;;;;1.20;1.20;;;;;;;3.70;88.11;96256.63;5111499;28;20963;-60
2023/01/04 04:38:39;;;;;;;0.50;0.40;;;;;;;3.55;89.64;96263.09;5111335;28;20511;-60
2023/01/04 04:43:55;;;;;;;4.20;1.03;;;;;;;3.77;86.22;96265.28;5111498;28;20430;-60
2023/01/04 04:46:27;;;;;;;2.93;2.73;;;;;;;3.29;86.48;96203.63;5111666;28;20939;-61
2023/01/04 04:48:56;;;;;;;1.47;1.37;;;;;;;3.62;85.65;96254.22;5111315;28;20631;-61
2023/01/04 04:51:24;;;;;;;2.40;1.83;;;;;;;3.58;85.68;96258.25;5111000;28;20475;-61
2023/01/04 04:53:52;;;;;;;5.07;1.70;;;;;;;3.73;84.95;96264.09;5111139;28;20499;-61
2023/01/04 04:56:21;;;;;;;2.83;2.73;;;;;;;2.98;90.16;96263.66;5111170;28;20431;-61
2023/01/04 04:58:50;;;;;;;1.57;1.47;;;;;;;3.00;92.64;96253.78;5111150;28;20985;-60
2023/01/04 05:01:20;;;;;;;3.33;0.60;;;;;;;3.41;89.76;96243.97;5111482;28;20462;-60
2023/01/04 05:03:48;;;;;;;7.40;1.90;;;;;;;3.59;87.63;96264.31;5111800;28;20801;-60
2023/01/04 05:06:17;;;;;;;1.67;1.10;;;;;;;3.66;86.91;96262.50;5111470;28;20419;-61
2023/01/04 05:08:45;;;;;;;2.53;2.27;;;;;;;3.65;86.23;96268.72;5111526;28;20428;-61
2023/01/04 05:11:14;;;;;;;2.53;2.33;;;;;;;3.06;86.94;96211.09;5111420;28;20939;-61
2023/01/04 05:13:44;;;;;;;3.90;3.60;;;;;;;3.34;87.79;96279.81;5111362;28;20911;-61
2023/01/04 05:16:12;;;;;;;1.53;1.07;;;;;;;3.39;87.60;96289.72;5111377;28;20555;-61
2023/01/04 05:18:42;;;;;;;1.10;1.10;;;;;;;3.46;87.41;96280.84;5111490;28;20785;-61
2023/01/04 05:21:10;;;;;;;3.53;3.43;;;;;;;3.39;87.96;96290.50;5111349;28;20502;-60
2023/01/04 05:23:46;;;;;;;1.53;1.43;;;;;;;3.51;87.47;96283.66;5111378;28;20814;-61
2023/01/04 05:26:15;;;;;;;28.23;1.37;;;;;;;3.69;85.71;96286.47;5111257;28;20424;-61
2023/01/04 05:28:43;;;;;;;0.87;0.87;;;;;;;3.61;84.84;96280.63;5111153;28;20428;-61
2023/01/04 05:31:19;;;;;;;1.50;1.40;;;;;;;3.48;85.31;96285.88;5111491;28;20424;-61
2023/01/04 05:33:49;;;;;;;2.33;2.23;;;;;;;3.03;87.02;96235.06;5113816;28;20428;-61
2023/01/04 05:36:17;;;;;;;3.27;1.23;;;;;;;3.34;88.21;96289.50;5114359;28;20464;-61
2023/01/04 05:38:45;;;;;;;3.40;2.80;;;;;;;3.61;87.18;96299.81;5113993;28;20424;-61
2023/01/04 05:43:56;;;;;;;4.90;1.97;;;;;;;2.84;90.98;96296.84;5113151;28;20444;-61
2023/01/04 05:46:27;;;;;;;2.17;1.97;;;;;;;2.72;91.83;96302.84;5114404;28;20439;-61
2023/01/04 05:48:57;;;;;;;1.40;1.30;;;;;;;3.04;88.65;96304.75;5114479;28;20922;-62
2023/01/04 05:51:25;;;;;;;1.73;1.63;;;;;;;3.04;86.66;96302.13;5114295;28;20810;-61
2023/01/04 05:53:53;;;;;;;4.00;3.13;;;;;;;2.83;86.31;96284.78;5114532;28;20967;-62
2023/01/04 05:56:22;;;;;;;6.50;1.97;;;;;;;2.89;85.77;96293.63;5114059;28;20567;-63
2023/01/04 05:58:50;;;;;;;6.80;2.93;;;;;;;2.92;85.27;96298.47;5114303;28;20426;-63
2023/01/04 06:01:18;;;;;;;1.80;1.70;;;;;;;3.17;84.67;96313.44;5114538;28;20424;-56
2023/01/04 06:03:47;;;;;;;5.30;2.93;;;;;;;3.02;85.07;96315.44;5114551;28;20446;-56
2023/01/04 06:06:17;;;;;;;1.70;1.60;;;;;;;2.58;85.58;96270.59;5114698;28;20503;-57
2023/01/04 06:08:45;;;;;;;3.30;3.10;;;;;;;2.69;85.26;96295.38;5113556;28;20517;-55
2023/01/04 06:11:14;;;;;;;14.83;4.10;;;;;;;3.07;84.54;96318.28;5114294;28;20511;-56
2023/01/04 06:13:42;;;;;;;2.37;2.20;;;;;;;3.46;83.88;96327.22;5114237;28;20472;-56
2023/01/04 06:16:10;;;;;;;2.70;2.60;;;;;;;3.78;83.41;96321.97;5113748;28;20495;-56
2023/01/04 06:18:39;;;;;;;9.70;4.60;;;;;;;3.80;80.09;96316.53;5113965;28;20431;-57
2023/01/04 06:21:09;;;;;;;8.97;3.37;;;;;;;3.88;79.80;96324.19;5114185;28;20557;-57
2023/01/04 06:23:39;;;;;;;14.17;5.47;;;;;;;4.15;79.90;96314.50;5114009;28;20818;-56
2023/01/04 06:26:07;;;;;;;7.17;4.93;;;;;;;4.33;78.42;96322.50;5114137;28;20419;-56
2023/01/04 06:28:36;;;;;;;12.17;4.47;;;;;;;4.63;77.30;96323.63;5114212;28;20503;-56
2023/01/04 06:31:09;;;;;;;5.53;5.03;;;;;;;4.69;76.12;96335.94;5114149;28;20870;-56
2023/01/04 06:33:38;;;;;;;5.13;4.90;;;;;;;4.79;75.98;96330.25;5113658;28;20800;-56
2023/01/04 06:36:07;;;;;;;5.83;5.53;;;;;;;4.79;76.07;96335.50;5113399;28;20456;-56
2023/01/04 06:38:49;;;;;;;8.23;4.43;;;;;;;4.61;75.59;96317.78;5113642;28;20927;-57
2023/01/04 06:41:17;;;;;;;2.90;2.70;;;;;;;4.48;75.70;96339.63;5113599;28;20450;-56
2023/01/04 06:43:46;;;;;;;5.57;4.70;;;;;;;3.88;77.37;96349.59;5112219;28;20426;-55
2023/01/04 06:46:14;;;;;;;9.43;5.03;;;;;;;3.82;77.37;96344.16;5113255;28;20419;-57
2023/01/04 06:48:43;;;;;;;8.63;5.93;;;;;;;4.69;75.45;96341.19;5113291;28;20454;-57
2023/01/04 06:51:11;;;;;;;4.00;3.30;;;;;;;4.94;72.83;96331.59;5113351;28;20590;-57
2023/01/04 06:53:40;;;;;;;4.10;3.70;;;;;;;5.51;71.05;96335.13;5113448;28;20471;-57
2023/01/04 06:56:09;;;;;;;2.40;2.30;;;;;;;5.55;70.83;96336.31;5113266;28;20478;-57
2023/01/04 06:58:38;;;;;;;1.57;1.50;;;;;;;5.75;69.17;96342.22;5113023;28;20424;-56
2023/01/04 07:01:07;;;;;;;2.73;2.63;;;;;;;6.20;68.77;96341.06;5113371;28;20518;-56
2023/01/04 07:03:35;;;;;;;1.40;1.23;;;;;;;6.33;67.49;96325.16;5113601;28;20761;-56
2023/01/04 07:06:06;;;;;;;2.00;1.90;;;;;;;6.58;66.85;96342.75;5112731;28;20424;-56
2023/01/04 07:08:34;;;;;;;7.90;6.20;;;;;;;6.15;68.11;96340.09;5112302;28;20412;-56
2023/01/04 07:11:03;;;;;;;3.63;3.30;;;;;;;5.25;68.21;96174.97;5112201;28;20445;-56
2023/01/04 07:13:33;;;;;;;4.23;3.37;;;;;;;6.52;66.54;96333.88;5112974;28;20521;-56
2023/01/04 07:16:01;;;;;;;14.50;6.57;;;;;;;6.66;67.46;96334.53;5112909;28;20979;-57
2023/01/04 07:18:30;;;;;;;7.20;6.83;;;;;;;6.88;67.56;96335.72;5113075;28;20420;-56
2023/01/04 07:20:58;;;;;;;6.23;4.10;;;;;;;7.45;66.78;96337.78;5112022;28;20427;-56
2023/01/04 07:23:26;;;;;;;4.83;4.00;;;;;;;7.73;66.57;96317.91;5113110;28;20858;-57
2023/01/04 07:25:54;;;;;;;3.47;3.17;;;;;;;8.09;66.12;96334.38;5112779;28;20904;-57
2023/01/04 07:31:09;;;;;;;4.50;4.30;;;;;;;8.05;64.28;96314.72;5111841;28;20438;-56
2023/01/04 07:33:38;;;;;;;4.93;4.63;;;;;;;8.71;62.81;96338.16;5112636;28;20441;-56
2023/01/04 07:36:07;;;;;;;7.23;4.63;;;;;;;9.26;61.49;96338.47;5112830;28;20494;-56
2023/01/04 07:38:36;;;;;;;4.93;3.03;;;;;;;9.30;61.28;96333.53;5112798;28;20454;-57
2023/01/04 07:41:04;;;;;;;7.93;7.43;;;;;;;9.24;62.39;96335.28;5112712;28;20789;-57
2023/01/04 07:43:32;;;;;;;22.33;6.60;;;;;;;9.49;62.08;96334.94;5112438;28;20447;-57
2023/01/04 07:46:01;;;;;;;7.10;6.13;;;;;;;9.42;61.41;96340.38;5112586;28;20434;-57
2023/01/04 07:48:31;;;;;;;3.90;3.33;;;;;;;9.57;61.17;96345.13;5112135;28;20421;-58
2023/01/04 07:51:00;;;;;;;6.13;4.43;;;;;;;9.44;61.64;96340.13;5112262;28;20544;-57
2023/01/04 07:53:28;;;;;;;3.60;3.40;;;;;;;9.44;61.11;96292.50;5112190;28;20424;-57
2023/01/04 07:55:57;;;;;;;2.43;2.33;;;;;;;9.66;59.91;96271.44;5112188;28;20460;-57
2023/01/04 07:58:25;;;;;;;3.73;2.00;;;;;;;10.69;58.48;96332.66;5112610;28;20507;-59
2023/01/04 08:00:54;;;;;;;4.17;3.90;;;;;;;10.80;57.81;96335.19;5112646;28;20424;-58
2023/01/04 08:03:22;;;;;;;4.97;3.80;;;;;;;11.27;56.62;96340.81;5112238;28;20435;-59
2023/01/04 08:05:53;;;;;;;2.90;2.80;;;;;;;11.57;56.39;96344.84;5111960;28;20443;-60
2023/01/04 08:08:24;;;;;;;3.57;2.57;;;;;;;11.25;57.11;96319.03;5112318;28;20428;-60
2023/01/04 08:10:52;;;;;;;2.27;2.07;;;;;;;11.72;55.64;96350.31;5112079;28;20454;-61
2023/01/04 08:13:21;;;;;;;4.07;3.87;;;;;;;11.82;55.35;96345.91;5112776;28;20781;-62
2023/01/04 08:15:53;;;;;;;2.73;2.63;;;;;;;11.94;55.69;96348.44;5113244;28;20487;-60
2023/01/04 08:18:21;;;;;;;5.70;5.30;;;;;;;12.21;54.97;96337.75;5112049;28;20445;-61
2023/01/04 08:20:50;;;;;;;13.73;5.10;;;;;;;12.77;53.20;96340.50;5112115;28;20504;-63
2023/01/04 08:23:26;;;;;;;6.27;5.90;;;;;;;12.53;54.28;96338.50;5112106;28;20430;-64
2023/01/04 08:25:55;;;;;;;14.80;5.30;;;;;;;12.99;52.70;96331.59;5111717;28;20930;-65
2023/01/04 08:28:23;;;;;;;17.37;8.47;;;;;;;12.76;52.86;96327.47;5111555;28;20430;-65
2023/01/04 08:30:51;;;;;;;8.67;5.33;;;;;;;12.60;53.76;96328.44;5111669;28;20433;-67
2023/01/04 08:33:20;;;;;;;8.37;3.90;;;;;;;13.09;51.90;96329.00;5112030;28;20506;-67
2023/01/04 08:35:48;;;;;;;8.33;6.03;;;;;;;13.40;51.65;96327.25;5111554;28;20526;-68
2023/01/04 08:38:16;;;;;;;2.07;1.97;;;;;;;14.21;50.48;96317.50;5112067;28;20426;-66
2023/01/04 08:41:06;;;;;;;3.40;3.10;;;;;;;14.18;49.89;96315.38;5113144;28;20446;-67
2023/01/04 08:43:54;;;;;;;2.60;2.50;;;;;;;14.10;51.22;96316.69;5112024;28;20447;-66
2023/01/04 08:46:23;;;;;;;3.90;2.13;;;;;;;14.45;50.27;96310.56;5111509;28;20420;-66
2023/01/04 08:48:52;;;;;;;11.23;3.77;;;;;;;14.78;48.98;96312.66;5111653;28;20426;-64
2023/01/04 08:51:20;;;;;;;1.93;1.83;;;;;;;15.03;48.63;96309.09;5111791;28;20532;-59
2023/01/04 08:53:49;;;;;;;11.20;4.20;;;;;;;15.03;47.39;96311.75;5111760;28;20990;-59
2023/01/04 08:56:19;;;;;;;5.33;3.67;;;;;;;14.54;48.27;96300.97;5112042;28;20991;-59
2023/01/04 08:58:47;;;;;;;7.30;2.77;;;;;;;14.93;47.46;96304.59;5111605;28;20463;-59
2023/01/04 09:01:15;;;;;;;3.30;2.57;;;;;;;15.17;47.16;96308.25;5111513;28;20499;-58
2023/01/04 09:03:45;;;;;;;3.00;2.80;;;;;;;14.89;47.57;96274.19;5111564;28;20427;-60
2023/01/04 09:06:15;;;;;;;3.60;2.83;;;;;;;15.33;47.47;96302.84;5111629;28;20808;-59
2023/01/04 09:08:44;;;;;;;6.60;1.53;;;;;;;15.88;46.16;96297.19;5114512;28;20423;-59
2023/01/04 09:11:14;;;;;;;2.53;2.43;;;;;;;16.19;45.74;96293.19;5114924;28;20507;-58
2023/01/04 09:13:44;;;;;;;6.70;3.73;;;;;;;16.38;46.26;96288.75;5114849;28;20455;-58
2023/01/04 09:16:15;;;;;;;5.17;2.90;;;;;;;16.85;45.36;96293.38;5114940;28;20979;-58
2023/01/04 09:18:44;;;;;;;3.70;3.50;;;;;;;16.58;44.81;96220.06;5115184;28;20420;-57
2023/01/04 09:21:15;;;;;;;2.97;2.77;;;;;;;16.65;44.93;96272.19;5115280;28;20900;-55
2023/01/04 09:23:44;;;;;;;10.23;2.17;;;;;;;17.21;44.49;96280.38;5114886;28;20422;-55
2023/01/04 09:26:14;;;;;;;5.23;3.67;;;;;;;17.48;45.32;96266.34;5114959;28;20420;-55
2023/01/04 09:28:45;;;;;;;8.57;2.93;;;;;;;17.25;44.41;96261.84;5115488;28;20419;-56
2023/01/04 09:31:15;;;;;;;2.70;1.80;;;;;;;17.22;43.56;96217.66;5114935;28;20430;-55
2023/01/04 09:33:44;;;;;;;2.83;2.73;;;;;;;17.15;42.96;96206.53;5115048;28;20428;-55
2023/01/04 09:36:32;;;;;;;2.77;2.67;;;;;;;17.01;43.04;96256.50;5115145;28;20486;-55
2023/01/04 09:39:01;;;;;;;2.40;2.30;;;;;;;16.96;43.74;96256.56;5114935;28;20419;-55
2023/01/04 09:41:32;;;;;;;5.70;1.67;;;;;;;17.17;43.60;96257.13;5115060;28;20437;-55
2023/01/04 09:44:07;;;;;;;3.67;2.60;;;;;;;17.29;43.20;96214.63;5114329;28;20786;-55
2023/01/04 09:46:44;;;;;;;4.13;1.57;;;;;;;17.57;42.48;96211.81;5114875;28;20416;-55
2023/01/04 09:49:19;;;;;;;2.13;1.73;;;;;;;18.49;41.74;96235.28;5114511;28;20480;-55
2023/01/04 09:51:56;;;;;;;2.50;2.37;;;;;;;18.40;41.40;96216.31;5115279;28;20424;-55
2023/01/04 09:54:33;;;;;;;2.00;1.90;;;;;;;18.28;41.07;96219.50;5114776;28;20476;-55
2023/01/04 09:57:05;;;;;;;16.27;3.70;;;;;;;18.41;41.12;96225.97;5114618;28;20466;-56
2023/01/04 09:59:35;;;;;;;3.00;2.90;;;;;;;18.47;41.30;96222.13;5114584;28;20477;-56
2023/01/04 10:02:10;;;;;;;2.37;1.53;;;;;;;18.66;40.48;96217.47;5114644;28;20431;-55
2023/01/04 10:04:46;;;;;;;8.77;4.13;;;;;;;18.76;41.32;96214.59;5114598;28;20428;-55
2023/01/04 10:07:18;;;;;;;4.03;3.73;;;;;;;19.67;41.19;96212.66;5114455;28;20451;-55
2023/01/04 10:09:47;;;;;;;3.83;3.60;;;;;;;19.85;40.38;96211.69;5114628;28;20424;-55
2023/01/04 10:12:29;;;;;;;3.50;3.20;;;;;;;19.53;40.19;96215.38;5114487;28;20435;-56
2023/01/04 10:15:11;;;;;;;2.43;2.33;;;;;;;18.99;40.48;96205.53;5114254;28;20434;-55
2023/01/04 10:17:54;;;;;;;1.57;1.47;;;;;;;19.34;40.33;96179.78;5114371;28;20831;-55
2023/01/04 10:21:01;;;;;;;2.40;1.00;;;;;;;19.63;39.57;96193.63;5113354;28;20439;-55
2023/01/04 10:24:02;;;;;;;2.60;1.43;;;;;;;20.04;39.19;96195.34;5113777;28;20431;-54
2023/01/04 10:26:38;;;;;;;2.10;2.00;;;;;;;20.32;38.66;96183.34;5114008;28;20459;-53
2023/01/04 10:29:32;;;;;;;3.47;2.83;;;;;;;21.58;38.14;96179.69;5113912;28;20429;-58
2023/01/04 10:32:05;;;;;;;0.70;0.70;;;;;;;22.66;36.44;96155.84;5113867;28;20440;-58
2023/01/04 10:34:40;;;;;;;1.00;0.87;;;;;;;23.59;35.56;96158.28;5113973;28;20515;-57
2023/01/04 10:37:15;;;;;;;2.23;1.30;;;;;;;23.18;36.04;96163.63;5113699;28;20459;-57
2023/01/04 10:39:44;;;;;;;1.20;1.10;;;;;;;22.71;34.85;96161.06;5113980;28;20426;-57
2023/01/04 10:42:19;;;;;;;0.80;0.70;;;;;;;23.32;34.33;96158.78;5113804;28;20920;-57
2023/01/04 10:44:59;;;;;;;1.63;1.40;;;;;;;22.47;34.94;96150.00;5113751;28;20451;-57
2023/01/04 10:47:44;;;;;;;16.20;1.10;;;;;;;23.01;34.07;96134.00;5113486;28;20424;-57
2023/01/04 10:50:22;;;;;;;2.00;1.60;;;;;;;22.53;35.25;96137.91;5113339;28;20485;-58
2023/01/04 10:52:56;;;;;;;1.73;1.63;;;;;;;22.08;35.79;96150.31;5113594;28;20430;-57
2023/01/04 10:55:31;;;;;;;9.27;3.00;;;;;;;22.53;35.28;96135.22;5113357;28;20427;-58
2023/01/04 10:58:04;;;;;;;1.80;1.27;;;;;;;22.01;35.89;96074.44;5113358;28;20498;-58
2023/01/04 11:00:38;;;;;;;8.53;1.90;;;;;;;22.29;35.44;96109.91;5113778;28;20416;-58
2023/01/04 11:03:15;;;;;;;2.67;2.47;;;;;;;21.39;36.45;96141.47;5113241;28;20450;-58
2023/01/04 11:05:49;;;;;;;1.77;1.67;;;;;;;22.03;35.87;96135.09;5112743;28;20424;-58
2023/01/04 11:08:23;;;;;;;1.43;1.33;;;;;;;22.05;35.64;96129.34;5112644;28;20440;-58
2023/01/04 11:10:56;;;;;;;1.60;1.50;;;;;;;21.38;35.34;96059.75;5113553;28;20511;-60
2023/01/04 11:13:25;;;;;;;1.00;1.00;;;;;;;22.03;35.20;96104.59;5113209;28;20427;-57
2023/01/04 11:15:54;;;;;;;1.07;0.90;;;;;;;22.28;35.01;96119.91;5113156;28;20431;-57
2023/01/04 11:18:24;;;;;;;0.93;0.93;;;;;;;22.21;35.08;96121.53;5113350;28;20474;-57
2023/01/04 11:20:52;;;;;;;1.47;1.37;;;;;;;22.77;34.35;96107.59;5112881;28;20426;-58
2023/01/04 11:23:21;;;;;;;2.57;1.37;;;;;;;23.53;34.36;96110.09;5112760;28;20962;-58
2023/01/04 11:25:54;;;;;;;1.10;0.80;;;;;;;23.57;33.61;96092.06;5112934;28;20439;-58
2023/01/04 11:28:28;;;;;;;0.67;0.50;;;;;;;23.16;33.77;96092.88;5113232;28;20424;-58
2023/01/04 11:31:05;;;;;;;1.60;0.83;;;;;;;23.59;33.64;96090.63;5111805;28;20516;-57
2023/01/04 11:33:51;;;;;;;5.23;1.40;;;;;;;23.59;33.56;96082.50;5112809;28;20420;-59
2023/01/04 11:36:37;;;;;;;2.10;1.03;;;;;;;23.12;35.04;96078.44;5112915;28;20415;-56
2023/01/04 11:39:07;;;;;;;3.80;2.53;;;;;;;23.19;34.04;96084.09;5111105;28;20526;-56
2023/01/04 11:41:35;;;;;;;1.50;1.40;;;;;;;23.03;34.08;96083.09;5113045;28;20426;-56
2023/01/04 11:44:07;;;;;;;5.53;3.20;;;;;;;23.07;34.54;96090.22;5112768;28;20455;-56
2023/01/04 11:46:35;;;;;;;1.73;1.63;;;;;;;22.91;34.50;96088.44;5113107;28;20996;-56
2023/01/04 11:49:10;;;;;;;3.80;1.90;;;;;;;22.45;34.11;95967.75;5113269;28;20416;-57
2023/01/04 11:51:41;;;;;;;21.80;1.97;;;;;;;23.23;34.25;96079.59;5112868;28;20800;-57
2023/01/04 11:54:20;;;;;;;1.37;1.27;;;;;;;22.61;36.16;96085.75;5112531;28;20874;-57
2023/01/04 11:57:09;;;;;;;1.40;1.40;;;;;;;23.07;35.24;96029.94;5112617;28;20420;-57
2023/01/04 11:59:39;;;;;;;3.53;2.07;;;;;;;23.48;34.59;96073.19;5112148;28;20463;-57
2023/01/04 12:02:19;;;;;;;4.93;1.37;;;;;;;23.96;35.40;96051.66;5112515;28;20502;-57
2023/01/04 12:05:18;;;;;;;1.90;0.83;;;;;;;25.04;31.83;96020.28;5112059;28;20438;-57
2023/01/04 12:07:56;;;;;;;0.50;0.43;;;;;;;25.68;32.09;96054.59;5111487;28;20480;-56
2023/01/04 12:10:27;;;;;;;0.83;0.83;;;;;;;25.54;31.06;96071.31;5111911;28;20428;-57
2023/01/04 12:12:57;;;;;;;0.83;0.83;;;;;;;25.60;32.57;96059.06;5112211;28;20488;-57
2023/01/04 12:15:34;;;;;;;2.70;2.20;;;;;;;25.17;31.35;96062.47;5111361;28;20518;-57
2023/01/04 12:18:07;;;;;;;3.23;1.83;;;;;;;24.55;32.17;96057.50;5111929;28;20474;-57
2023/01/04 12:20:37;;;;;;;1.83;1.73;;;;;;;23.92;31.68;96058.91;5112344;28;20420;-58
2023/01/04 12:23:05;;;;;;;1.00;0.97;;;;;;;23.70;33.13;96064.72;5111910;28;20908;-58
2023/01/04 12:25:39;;;;;;;9.60;1.77;;;;;;;21.31;34.99;96064.06;5112024;28;20503;-57
2023/01/04 12:28:27;;;;;;;2.07;1.40;;;;;;;22.46;34.58;96056.59;5112236;28;20882;-56
2023/01/04 12:30:55;;;;;;;4.80;4.40;;;;;;;22.45;33.90;96057.69;5111882;28;20904;-56
2023/01/04 12:33:40;;;;;;;1.60;1.50;;;;;;;22.30;33.84;95973.72;5111626;28;21000;-57
2023/01/04 12:36:10;;;;;;;4.93;1.67;;;;;;;24.29;32.23;96053.53;5111657;28;20927;-57
2023/01/04 12:38:59;;;;;;;0.80;0.57;;;;;;;24.61;31.25;96053.44;5111560;28;20459;-57
2023/01/04 12:42:20;;;;;;;2.00;1.90;;;;;;;23.91;32.62;96051.09;5111477;28;20444;-57
2023/01/04 12:45:15;;;;;;;1.67;1.57;;;;;;;24.13;31.52;96003.88;5115953;28;20424;-57
2023/01/04 12:51:22;;;;;;;2.07;1.97;;;;;;;24.65;31.33;96042.69;5115398;28;20478;-57
2023/01/04 12:54:03;;;;;;;1.63;1.50;;;;;;;24.26;31.75;96025.19;5115840;28;20428;-57
2023/01/04 12:57:09;;;;;;;1.50;0.57;;;;;;;24.22;31.41;96039.75;5115851;28;20430;-57